Jacumba, California
Current Conditions -  °F | °C
As of 3:56 AM on Sunday 23 Nov 2014 (Local Time) from KNJK Reporting Station
Clear Clear  
Wind Chill: 53°   Ceiling: Unl
Heat Index: 53°   Visibility: 10mi
Dew Point: 44°   Wind: 0mph
Humidity: 71%   Direction: NA
Pressure: 29.95"   Gusts: NA
Location:  32.62°N, 116.19°W
Report Text: KNJK 231156Z AUTO 00000KT 10SM CLR 12/07 A2995 RMK AO2 SLP157 T01170067 10156 20094 53016 PWINO $
Loading
Personal Weather Stations






























Interactive Weather Map New forecast layout! Learn more

10-Day Weather Forecast

Advertisements
Track Severe Weather on mobile